Time;durP1;ratioP1;P1;durP2;ratioP2;P2;SDS_P1;SDS_P2;PMS_P1;PMS_P2;Temp;Humidity;BMP_temperature;BMP_pressure;BME280_temperature;BME280_humidity;BME280_pressure;Samples;Min_cycle;Max_cycle;Signal;HPM_P1;HPM_P2
2022/06/02 00:01:48;;;;;;;0.70;0.65;;;9.00;99.90;;;;;;5066781;28;20093;-70
2022/06/02 00:04:21;;;;;;;2.20;0.75;;;9.10;99.90;;;;;;5039805;28;20546;-79
2022/06/02 00:07:09;;;;;;;0.90;0.43;;;9.20;99.90;;;;;;5061811;28;20017;-78
2022/06/02 00:10:11;;;;;;;1.27;0.80;;;9.20;99.90;;;;;;5066512;28;20433;-78
2022/06/02 00:12:47;;;;;;;1.02;0.60;;;9.30;99.90;;;;;;5002963;28;20651;-77
2022/06/02 00:15:26;;;;;;;1.17;0.50;;;9.50;99.90;;;;;;5063841;28;20027;-70
2022/06/02 00:18:12;;;;;;;1.48;0.50;;;9.50;99.90;;;;;;5056035;28;20056;-73
2022/06/02 00:20:53;;;;;;;0.80;0.60;;;9.60;99.90;;;;;;5064421;28;20033;-78
2022/06/02 00:23:46;;;;;;;0.88;0.50;;;9.60;99.90;;;;;;5065999;28;20017;-73
2022/06/02 00:26:45;;;;;;;1.98;1.02;;;9.70;99.90;;;;;;5040661;28;20363;-78
2022/06/02 00:29:24;;;;;;;0.70;0.50;;;9.70;99.90;;;;;;5060268;28;20028;-69
2022/06/02 00:31:58;;;;;;;1.08;0.77;;;9.80;99.90;;;;;;5068333;28;20032;-77
2022/06/02 00:34:30;;;;;;;1.67;1.17;;;9.90;99.90;;;;;;5057960;28;20020;-77
2022/06/02 00:37:06;;;;;;;1.02;0.70;;;10.00;99.90;;;;;;5061598;28;20098;-77
2022/06/02 00:39:35;;;;;;;1.02;0.77;;;10.10;99.90;;;;;;5067117;28;20032;-78
2022/06/02 00:42:26;;;;;;;2.45;0.82;;;10.20;99.90;;;;;;5055441;28;20029;-78
2022/06/02 00:45:05;;;;;;;1.50;0.85;;;10.30;99.90;;;;;;5051479;28;20373;-69
2022/06/02 00:47:58;;;;;;;0.70;0.68;;;10.40;99.90;;;;;;5057262;28;20028;-78
2022/06/02 00:51:00;;;;;;;2.17;0.80;;;10.60;99.90;;;;;;5043416;28;20028;-78
2022/06/02 01:00:00;;;;;;;2.78;1.00;;;10.90;99.90;;;;;;5055477;28;20048;-77
2022/06/02 01:02:30;;;;;;;3.63;0.60;;;11.10;99.90;;;;;;5065800;28;20059;-78
2022/06/02 01:05:00;;;;;;;4.15;0.85;;;11.20;99.90;;;;;;5061883;28;20534;-80
2022/06/02 01:07:27;;;;;;;2.38;0.73;;;11.30;99.90;;;;;;5057857;28;20079;-76
2022/06/02 01:10:19;;;;;;;0.60;0.60;;;11.30;99.90;;;;;;5068399;28;20031;-75
2022/06/02 01:13:04;;;;;;;1.10;0.70;;;11.20;99.90;;;;;;5059936;28;20099;-78
2022/06/02 01:15:58;;;;;;;1.67;0.85;;;11.20;99.90;;;;;;5056354;28;20021;-75
2022/06/02 01:18:38;;;;;;;1.13;0.85;;;11.20;99.90;;;;;;5043445;28;20040;-75
2022/06/02 01:21:27;;;;;;;7.72;0.73;;;11.10;99.90;;;;;;5060410;28;20048;-78
2022/06/02 01:24:33;;;;;;;0.88;0.57;;;11.10;99.90;;;;;;5068220;28;20017;-77
2022/06/02 01:27:30;;;;;;;1.58;0.95;;;11.00;99.90;;;;;;5054711;28;20040;-74
2022/06/02 01:30:37;;;;;;;2.35;1.10;;;11.00;99.90;;;;;;5054798;28;20497;-78
2022/06/02 01:33:28;;;;;;;1.25;0.70;;;11.10;99.90;;;;;;5060471;28;20377;-78
2022/06/02 01:36:23;;;;;;;0.90;0.68;;;11.00;99.90;;;;;;5067649;28;20072;-77
2022/06/02 01:38:56;;;;;;;2.75;1.00;;;11.10;99.90;;;;;;5059755;28;20387;-78
2022/06/02 01:41:57;;;;;;;1.35;0.70;;;11.10;99.90;;;;;;5057779;28;20067;-79
2022/06/02 01:44:56;;;;;;;2.35;0.70;;;11.10;99.90;;;;;;5043006;28;20017;-70
2022/06/02 01:47:35;;;;;;;2.78;0.80;;;11.10;99.90;;;;;;5057796;28;20108;-78
2022/06/02 01:50:13;;;;;;;3.92;0.75;;;11.20;99.90;;;;;;5067569;28;20108;-79
2022/06/02 01:52:54;;;;;;;0.85;0.57;;;11.30;99.90;;;;;;5059088;28;20496;-79
2022/06/02 01:55:42;;;;;;;2.47;0.70;;;11.40;99.90;;;;;;5057619;28;20025;-70
2022/06/02 01:58:31;;;;;;;1.27;0.52;;;11.40;99.90;;;;;;5038810;28;20470;-76
2022/06/02 02:01:17;;;;;;;3.83;1.02;;;11.50;99.90;;;;;;5061025;28;20040;-76
2022/06/02 02:03:44;;;;;;;;;;;11.50;99.90;;;;;;5052018;28;20468;-70
2022/06/02 02:06:58;;;;;;;3.67;1.23;;;11.50;99.90;;;;;;5060611;28;19904;-79
2022/06/02 02:09:58;;;;;;;3.00;1.33;;;11.40;99.90;;;;;;5056079;28;20551;-70
2022/06/02 02:12:52;;;;;;;1.15;1.02;;;11.40;99.90;;;;;;5029256;28;20037;-71
2022/06/02 02:15:26;;;;;;;2.40;0.93;;;11.50;99.90;;;;;;5058658;28;20075;-70
2022/06/02 02:18:05;;;;;;;1.67;0.90;;;11.60;99.90;;;;;;5058211;28;20021;-70
2022/06/02 02:20:49;;;;;;;1.65;1.00;;;11.60;99.90;;;;;;5057386;28;20059;-68
2022/06/02 02:23:48;;;;;;;2.88;1.15;;;11.70;99.90;;;;;;5067589;28;20031;-69
2022/06/02 02:26:33;;;;;;;1.70;1.17;;;11.80;99.90;;;;;;5043766;28;20016;-68
2022/06/02 02:29:23;;;;;;;1.38;0.75;;;11.80;99.90;;;;;;5064174;28;20021;-69
2022/06/02 02:32:21;;;;;;;4.78;0.73;;;11.80;99.90;;;;;;5071125;28;20025;-68
2022/06/02 02:35:06;;;;;;;4.60;1.23;;;11.80;99.90;;;;;;5063518;28;20012;-69
2022/06/02 02:37:57;;;;;;;2.25;0.75;;;11.90;99.90;;;;;;5059157;28;20055;-69
2022/06/02 02:40:32;;;;;;;2.25;0.93;;;11.90;99.90;;;;;;5045790;28;20392;-76
2022/06/02 02:43:25;;;;;;;1.88;0.75;;;11.90;99.90;;;;;;5063919;28;20369;-78
2022/06/02 02:45:55;;;;;;;2.10;1.00;;;11.90;99.90;;;;;;5070644;28;20052;-78
2022/06/02 02:48:57;;;;;;;1.75;0.60;;;11.90;99.90;;;;;;5059845;28;20013;-77
2022/06/02 02:51:31;;;;;;;1.60;0.80;;;11.90;99.90;;;;;;5060199;28;20025;-77
2022/06/02 02:54:08;;;;;;;3.03;0.93;;;11.80;99.90;;;;;;5070786;28;20047;-77
2022/06/02 02:57:13;;;;;;;1.85;0.80;;;11.90;99.90;;;;;;5061243;28;20496;-77
2022/06/02 02:59:57;;;;;;;1.85;0.60;;;12.00;99.90;;;;;;5057811;28;20047;-75
2022/06/02 03:02:59;;;;;;;3.65;0.70;;;12.10;99.90;;;;;;5045263;28;20107;-76
2022/06/02 03:05:50;;;;;;;1.40;0.65;;;12.10;99.90;;;;;;5026886;28;20090;-77
2022/06/02 03:08:41;;;;;;;1.67;0.70;;;12.10;99.90;;;;;;5043375;28;20133;-77
2022/06/02 03:11:36;;;;;;;1.90;0.73;;;12.00;99.90;;;;;;5061952;28;20075;-73
2022/06/02 03:14:32;;;;;;;0.60;0.40;;;12.00;99.90;;;;;;5055764;28;20044;-77
2022/06/02 03:17:34;;;;;;;3.20;0.60;;;12.00;99.90;;;;;;5050723;28;20115;-78
2022/06/02 03:20:43;;;;;;;0.93;0.60;;;11.90;99.90;;;;;;5047397;28;20541;-77
2022/06/02 03:23:34;;;;;;;1.42;0.82;;;11.90;99.90;;;;;;5041873;28;20553;-71
2022/06/02 03:26:27;;;;;;;3.25;0.77;;;11.90;99.90;;;;;;5052236;28;20071;-78
2022/06/02 03:29:41;;;;;;;3.30;0.95;;;11.90;99.90;;;;;;5053574;28;20018;-75
2022/06/02 03:32:20;;;;;;;2.00;0.52;;;11.90;99.90;;;;;;5030767;28;20040;-69
2022/06/02 03:35:14;;;;;;;1.38;0.50;;;11.90;99.90;;;;;;5050098;28;20028;-69
2022/06/02 03:37:52;;;;;;;1.02;0.55;;;12.00;99.90;;;;;;5051809;28;20049;-69
2022/06/02 03:40:43;;;;;;;1.33;0.60;;;12.00;99.90;;;;;;5051582;28;20036;-70
2022/06/02 03:43:44;;;;;;;2.17;0.85;;;11.90;99.90;;;;;;5053017;28;20052;-70
2022/06/02 03:46:25;;;;;;;2.22;0.85;;;11.90;99.90;;;;;;5044283;28;20086;-77
2022/06/02 03:49:15;;;;;;;1.50;0.60;;;11.90;99.90;;;;;;5053262;28;20024;-70
2022/06/02 03:51:58;;;;;;;1.30;0.68;;;12.00;99.90;;;;;;5016747;28;20098;-78
2022/06/02 03:54:47;;;;;;;2.22;0.55;;;11.90;99.90;;;;;;5052102;28;20021;-69
2022/06/02 03:57:17;;;;;;;2.35;1.13;;;12.00;99.90;;;;;;5053246;28;20027;-77
2022/06/02 04:00:18;;;;;;;2.53;0.60;;;12.00;99.90;;;;;;5051864;28;20029;-70
2022/06/02 04:02:53;;;;;;;0.85;0.57;;;12.10;99.90;;;;;;5052127;28;20477;-69
2022/06/02 04:05:37;;;;;;;1.88;0.52;;;12.20;99.90;;;;;;5051404;28;20032;-70
2022/06/02 04:08:34;;;;;;;1.08;0.70;;;12.10;99.90;;;;;;5051875;28;20021;-71
2022/06/02 04:11:28;;;;;;;1.85;0.63;;;12.20;99.90;;;;;;5051206;28;20481;-69
2022/06/02 04:14:02;;;;;;;3.50;0.85;;;12.20;99.90;;;;;;5053032;28;20040;-70
2022/06/02 04:16:58;;;;;;;1.98;0.80;;;12.20;99.90;;;;;;5053574;28;20025;-69
2022/06/02 04:23:00;;;;;;;1.63;0.65;;;12.30;99.90;;;;;;5037401;28;20031;-77
2022/06/02 04:25:37;;;;;;;1.23;0.70;;;12.20;99.90;;;;;;5051865;28;20021;-69
2022/06/02 04:28:34;;;;;;;1.55;0.60;;;12.20;99.90;;;;;;5051399;28;20034;-69
2022/06/02 04:31:52;;;;;;;2.08;0.65;;;12.20;99.90;;;;;;5050866;28;20017;-71
2022/06/02 04:34:50;;;;;;;4.22;0.73;;;12.20;99.90;;;;;;5041177;28;20032;-70
2022/06/02 04:37:53;;;;;;;4.20;0.80;;;12.20;99.90;;;;;;5045538;28;20440;-71
2022/06/02 04:40:27;;;;;;;2.75;1.02;;;12.20;99.90;;;;;;5048122;28;20481;-70
2022/06/02 04:43:11;;;;;;;2.78;0.90;;;12.20;99.90;;;;;;5051989;28;20021;-77
2022/06/02 04:46:19;;;;;;;2.20;1.02;;;12.20;99.90;;;;;;5051846;28;20103;-69
2022/06/02 04:49:28;;;;;;;3.35;0.70;;;12.20;99.90;;;;;;5050232;28;20377;-70
2022/06/02 04:52:12;;;;;;;2.35;0.60;;;12.30;99.90;;;;;;5046892;28;20033;-78
2022/06/02 04:54:52;;;;;;;4.55;0.60;;;12.20;99.90;;;;;;5053003;28;20025;-70
2022/06/02 04:57:34;;;;;;;3.58;0.90;;;12.20;99.90;;;;;;5053000;28;20016;-78
2022/06/02 05:00:09;;;;;;;2.30;0.98;;;12.30;99.90;;;;;;5050357;28;20028;-75
2022/06/02 05:02:49;;;;;;;4.30;1.25;;;12.30;99.90;;;;;;5052669;28;20063;-72
2022/06/02 05:05:45;;;;;;;3.05;1.02;;;12.20;99.90;;;;;;5052823;28;20504;-71
2022/06/02 05:08:48;;;;;;;2.47;1.00;;;12.20;99.90;;;;;;5049752;28;20033;-78
2022/06/02 05:11:31;;;;;;;2.03;0.75;;;12.20;99.90;;;;;;4960675;28;20389;-78
2022/06/02 05:14:20;;;;;;;2.67;0.93;;;12.20;99.90;;;;;;5043603;28;20033;-73
2022/06/02 05:16:55;;;;;;;1.77;0.90;;;12.10;99.90;;;;;;5050979;28;20017;-71
2022/06/02 05:19:49;;;;;;;2.92;0.80;;;12.10;99.90;;;;;;5050167;28;20067;-78
2022/06/02 05:22:51;;;;;;;2.38;0.75;;;12.10;99.90;;;;;;5051460;28;20084;-78
2022/06/02 05:25:27;;;;;;;7.20;0.70;;;12.10;99.90;;;;;;5051753;28;20401;-79
2022/06/02 05:28:10;;;;;;;1.85;0.70;;;12.10;99.90;;;;;;5050721;28;20508;-75
2022/06/02 05:30:43;;;;;;;2.30;0.95;;;12.00;99.90;;;;;;5052399;28;20781;-78
2022/06/02 05:33:33;;;;;;;2.20;0.80;;;12.10;99.90;;;;;;5051857;28;20074;-77
2022/06/02 05:36:26;;;;;;;1.02;0.55;;;12.00;99.90;;;;;;5049180;28;20033;-70
2022/06/02 05:39:21;;;;;;;3.03;0.88;;;12.00;99.90;;;;;;5050302;28;20028;-77
2022/06/02 05:42:29;;;;;;;3.05;0.77;;;12.00;99.90;;;;;;5053843;28;20036;-74
2022/06/02 05:45:18;;;;;;;0.85;0.47;;;12.00;99.90;;;;;;5054484;28;20087;-71
2022/06/02 05:48:04;;;;;;;2.53;0.80;;;12.00;99.90;;;;;;5053334;28;20497;-79
2022/06/02 05:50:57;;;;;;;;;;;12.00;99.90;;;;;;5054614;28;20029;-71
2022/06/02 05:53:56;;;;;;;1.85;0.98;;;12.00;99.90;;;;;;5046551;28;20357;-72
2022/06/02 05:56:54;;;;;;;1.58;1.00;;;12.00;99.90;;;;;;5054900;28;20451;-72
2022/06/02 05:59:41;;;;;;;2.67;1.00;;;11.90;99.90;;;;;;5053581;28;20013;-71
2022/06/02 06:02:26;;;;;;;2.42;1.17;;;11.90;99.90;;;;;;5054989;28;20071;-79
2022/06/02 06:04:59;;;;;;;2.20;1.00;;;11.90;99.90;;;;;;5056048;28;20389;-79
2022/06/02 06:08:00;;;;;;;1.83;0.52;;;11.90;99.90;;;;;;5054123;28;20051;-74
2022/06/02 06:10:30;;;;;;;5.32;1.02;;;11.90;99.90;;;;;;5054280;28;20028;-76
2022/06/02 06:13:10;;;;;;;5.40;0.75;;;11.80;99.90;;;;;;5055793;28;20025;-73
2022/06/02 06:15:57;;;;;;;1.70;1.10;;;11.70;99.90;;;;;;5055846;28;20009;-77
2022/06/02 06:19:04;;;;;;;1.88;0.70;;;11.60;99.90;;;;;;5053778;28;20495;-70
2022/06/02 06:21:56;;;;;;;2.95;1.05;;;11.50;99.90;;;;;;5054640;28;20108;-70
2022/06/02 06:24:57;;;;;;;4.57;1.10;;;11.40;99.90;;;;;;5053598;28;20025;-70
2022/06/02 06:27:42;;;;;;;2.55;1.20;;;11.40;99.90;;;;;;5053571;28;20558;-70
2022/06/02 06:30:39;;;;;;;2.90;0.95;;;11.40;99.90;;;;;;5054149;28;20433;-70
2022/06/02 06:33:15;;;;;;;1.80;1.02;;;11.30;99.90;;;;;;5035677;28;20037;-70
2022/06/02 06:36:19;;;;;;;2.53;0.98;;;11.30;99.90;;;;;;5053287;28;20104;-77
2022/06/02 06:38:51;;;;;;;2.03;0.60;;;11.20;99.90;;;;;;5052801;28;20036;-71
2022/06/02 06:41:35;;;;;;;2.53;1.27;;;11.20;99.90;;;;;;5054871;28;20036;-71
2022/06/02 06:44:18;;;;;;;5.28;0.93;;;11.20;99.90;;;;;;5054121;28;20025;-72
2022/06/02 06:47:11;;;;;;;2.63;0.85;;;11.10;99.90;;;;;;5054018;28;20112;-74
2022/06/02 06:49:44;;;;;;;2.10;0.93;;;11.10;99.90;;;;;;5054119;28;20033;-70
2022/06/02 06:52:32;;;;;;;1.50;0.70;;;11.10;99.90;;;;;;5053256;28;20036;-72
2022/06/02 06:55:03;;;;;;;2.03;1.30;;;11.10;99.90;;;;;;5054422;28;20044;-77
2022/06/02 06:57:52;;;;;;;1.33;0.68;;;11.00;99.90;;;;;;5054271;28;20017;-78
2022/06/02 07:00:36;;;;;;;1.58;1.20;;;11.00;99.90;;;;;;5054002;28;20025;-77
2022/06/02 07:03:21;;;;;;;3.65;1.17;;;11.00;99.90;;;;;;5052128;28;20025;-77
2022/06/02 07:06:19;;;;;;;2.05;1.13;;;10.90;99.90;;;;;;5052157;28;20021;-70
2022/06/02 07:09:07;;;;;;;2.28;0.88;;;10.90;99.90;;;;;;5035709;28;20041;-71
2022/06/02 07:15:00;;;;;;;2.08;0.80;;;10.80;99.90;;;;;;5042459;28;20593;-77
2022/06/02 07:17:39;;;;;;;0.93;0.60;;;10.80;99.90;;;;;;5049064;28;20107;-71
2022/06/02 07:20:16;;;;;;;6.53;0.90;;;10.80;99.90;;;;;;5052032;28;20075;-75
2022/06/02 07:23:14;;;;;;;1.42;0.70;;;10.80;99.90;;;;;;5052074;28;20024;-70
2022/06/02 07:26:09;;;;;;;2.60;0.85;;;10.70;99.90;;;;;;5052210;28;20017;-76
2022/06/02 07:29:10;;;;;;;1.58;0.80;;;10.70;99.90;;;;;;5053629;28;20532;-72
2022/06/02 07:32:22;;;;;;;0.93;0.70;;;10.70;99.90;;;;;;5053817;28;20021;-71
2022/06/02 07:35:16;;;;;;;2.78;0.70;;;10.70;99.90;;;;;;5049365;28;20037;-76
2022/06/02 07:37:59;;;;;;;2.53;0.95;;;10.60;99.90;;;;;;5051662;28;20144;-70
2022/06/02 07:40:45;;;;;;;3.03;1.08;;;10.60;99.90;;;;;;5052015;28;20482;-71
2022/06/02 07:43:22;;;;;;;4.72;0.80;;;10.60;99.90;;;;;;5052691;28;20028;-76
2022/06/02 07:46:25;;;;;;;1.33;0.60;;;10.50;99.90;;;;;;5052525;28;20028;-75
2022/06/02 07:49:29;;;;;;;1.90;1.00;;;10.50;99.90;;;;;;5052977;28;20036;-71
2022/06/02 07:52:20;;;;;;;2.50;0.90;;;10.50;99.90;;;;;;5053156;28;20457;-71
2022/06/02 07:54:54;;;;;;;2.40;1.30;;;10.50;99.90;;;;;;5052091;28;20508;-75
2022/06/02 07:57:45;;;;;;;2.85;1.65;;;10.40;99.90;;;;;;5051264;28;20469;-71
2022/06/02 08:00:21;;;;;;;1.95;1.27;;;10.40;99.90;;;;;;5052660;28;20082;-71
2022/06/02 08:02:55;;;;;;;5.35;1.20;;;10.40;99.90;;;;;;5051704;28;20017;-75
2022/06/02 08:05:47;;;;;;;2.67;1.58;;;10.30;99.90;;;;;;5053544;28;20025;-74
2022/06/02 08:08:50;;;;;;;2.30;1.55;;;10.20;99.90;;;;;;5049972;28;20021;-74
2022/06/02 08:11:20;;;;;;;3.72;1.85;;;10.30;99.90;;;;;;5040485;28;20047;-74
2022/06/02 08:14:22;;;;;;;4.32;1.92;;;10.20;99.90;;;;;;5051209;28;20021;-77
2022/06/02 08:17:07;;;;;;;4.75;1.70;;;10.20;99.90;;;;;;5051568;28;20099;-71
2022/06/02 08:19:59;;;;;;;3.75;1.70;;;10.20;99.90;;;;;;5050207;28;20013;-71
2022/06/02 08:22:50;;;;;;;1.52;1.00;;;10.20;99.90;;;;;;5051171;28;20040;-75
2022/06/02 08:25:24;;;;;;;7.32;1.85;;;10.20;99.90;;;;;;5044173;28;20487;-74
2022/06/02 08:27:59;;;;;;;5.95;3.70;;;10.20;99.90;;;;;;5050165;28;20366;-77
2022/06/02 08:31:05;;;;;;;22.08;10.95;;;10.20;99.90;;;;;;5049039;28;20432;-76
2022/06/02 08:33:42;;;;;;;23.20;13.52;;;10.10;99.90;;;;;;5050229;28;20032;-71
2022/06/02 08:36:14;;;;;;;18.98;11.75;;;10.10;99.90;;;;;;5049832;28;20094;-71
2022/06/02 08:39:09;;;;;;;19.20;10.82;;;10.10;99.90;;;;;;5049972;28;20036;-76
2022/06/02 08:42:22;;;;;;;34.88;20.63;;;10.00;99.90;;;;;;5050262;28;20527;-71
2022/06/02 08:45:02;;;;;;;43.85;25.80;;;10.10;99.90;;;;;;5049330;28;20045;-70
2022/06/02 08:48:05;;;;;;;42.30;22.27;;;10.10;99.90;;;;;;5050877;28;20452;-76
2022/06/02 08:51:09;;;;;;;14.40;8.00;;;10.00;99.90;;;;;;5051998;28;20013;-75
2022/06/02 08:54:17;;;;;;;10.25;6.43;;;10.00;99.90;;;;;;5051808;28;20033;-73
2022/06/02 08:57:08;;;;;;;7.60;4.15;;;10.00;99.90;;;;;;5011073;28;20021;-70
2022/06/02 08:59:56;;;;;;;12.95;7.90;;;10.00;99.90;;;;;;5028222;28;21127;-70
2022/06/02 09:03:00;;;;;;;22.75;13.52;;;10.00;99.90;;;;;;5045624;28;20040;-77
2022/06/02 09:05:39;;;;;;;19.42;12.75;;;9.90;99.90;;;;;;5050687;28;20021;-72
2022/06/02 09:08:14;;;;;;;21.48;13.63;;;9.90;99.90;;;;;;5048973;28;20029;-73
2022/06/02 09:11:11;;;;;;;28.77;19.87;;;9.90;99.90;;;;;;5047963;28;20025;-71
2022/06/02 09:14:10;;;;;;;34.47;23.13;;;9.90;99.90;;;;;;5049581;28;20095;-71
2022/06/02 09:17:07;;;;;;;23.92;12.95;;;9.80;99.90;;;;;;5050153;28;20021;-76
2022/06/02 09:20:14;;;;;;;10.60;5.53;;;9.80;99.90;;;;;;5050677;28;20024;-71
2022/06/02 09:23:11;;;;;;;8.00;4.25;;;9.80;99.90;;;;;;5040062;28;20028;-76
2022/06/02 09:25:49;;;;;;;5.45;4.07;;;9.70;99.90;;;;;;5043027;28;20025;-71
2022/06/02 09:28:50;;;;;;;5.45;4.75;;;9.70;99.90;;;;;;5049035;28;20036;-71
2022/06/02 09:31:53;;;;;;;5.90;4.93;;;9.70;99.90;;;;;;5050326;28;20474;-76
2022/06/02 09:34:24;;;;;;;9.73;6.28;;;9.70;99.90;;;;;;5050680;28;20111;-72
2022/06/02 09:36:55;;;;;;;7.22;5.25;;;9.60;99.90;;;;;;5048092;28;20458;-73
2022/06/02 09:39:43;;;;;;;8.93;4.63;;;9.60;99.90;;;;;;5049389;28;20120;-74
2022/06/02 09:42:44;;;;;;;6.47;3.70;;;9.60;99.90;;;;;;5048764;28;20041;-71
2022/06/02 09:45:24;;;;;;;6.00;3.60;;;9.50;99.90;;;;;;5049956;28;20112;-71
2022/06/02 09:48:08;;;;;;;6.47;3.53;;;9.50;99.90;;;;;;5050039;28;20013;-77
2022/06/02 09:51:04;;;;;;;8.20;3.53;;;9.50;99.90;;;;;;5048264;28;20031;-77
2022/06/02 09:53:40;;;;;;;4.68;3.00;;;9.50;99.90;;;;;;5046132;28;20424;-73
2022/06/02 09:56:32;;;;;;;4.97;3.80;;;9.50;99.90;;;;;;5049872;28;20056;-71
2022/06/02 09:59:00;;;;;;;5.32;3.20;;;9.50;99.90;;;;;;5050323;28;20025;-74
2022/06/02 10:01:45;;;;;;;5.72;3.92;;;9.50;99.90;;;;;;5048831;28;20033;-70
2022/06/02 10:04:12;;;;;;;4.60;3.13;;;9.50;99.90;;;;;;5047538;28;20083;-77
2022/06/02 10:07:14;;;;;;;9.18;3.22;;;9.50;99.90;;;;;;5049303;28;20104;-72
2022/06/02 10:10:15;;;;;;;4.07;3.15;;;9.50;99.90;;;;;;5048277;28;20030;-71
2022/06/02 10:13:07;;;;;;;7.00;3.88;;;9.40;99.90;;;;;;5049045;28;20025;-71
2022/06/02 10:15:54;;;;;;;5.85;3.13;;;9.40;99.90;;;;;;5049708;28;20343;-74
2022/06/02 10:18:39;;;;;;;5.70;2.92;;;9.40;99.90;;;;;;5050234;28;21094;-71
2022/06/02 10:21:20;;;;;;;8.45;2.90;;;9.30;99.90;;;;;;5051072;28;20040;-75
2022/06/02 10:23:56;;;;;;;7.50;2.40;;;9.30;99.90;;;;;;5048288;28;20084;-71
2022/06/02 10:26:42;;;;;;;4.50;1.20;;;9.30;99.90;;;;;;5053105;28;20206;-74
2022/06/02 10:29:38;;;;;;;2.75;1.60;;;9.30;99.90;;;;;;5054424;28;20029;-75
2022/06/02 10:32:34;;;;;;;1.80;1.30;;;9.30;99.90;;;;;;5045569;28;20040;-73
2022/06/02 10:35:40;;;;;;;3.17;1.88;;;9.30;99.90;;;;;;5053826;28;20021;-77
2022/06/02 10:38:13;;;;;;;2.45;1.60;;;9.20;99.90;;;;;;5051582;28;20124;-71
2022/06/02 10:41:07;;;;;;;3.22;1.98;;;9.20;99.90;;;;;;5053152;28;20025;-77
2022/06/02 10:43:53;;;;;;;4.43;2.17;;;9.20;99.90;;;;;;5052574;28;20025;-74
2022/06/02 10:46:45;;;;;;;6.15;1.98;;;9.20;99.90;;;;;;5053987;28;20032;-72
2022/06/02 10:49:38;;;;;;;3.97;2.13;;;9.10;99.90;;;;;;5053018;28;20018;-74
2022/06/02 10:52:27;;;;;;;3.45;1.95;;;9.10;99.90;;;;;;5053121;28;20497;-77
2022/06/02 10:55:25;;;;;;;4.13;1.90;;;9.10;99.90;;;;;;5053768;28;20059;-78
2022/06/02 10:58:07;;;;;;;4.80;2.50;;;9.00;99.90;;;;;;5052943;28;20021;-72
2022/06/02 11:01:02;;;;;;;4.32;2.60;;;9.00;99.90;;;;;;5052161;28;20036;-76
2022/06/02 11:03:47;;;;;;;6.65;3.00;;;9.00;99.90;;;;;;5053082;28;20028;-77
2022/06/02 11:06:51;;;;;;;8.73;3.15;;;9.00;99.90;;;;;;5051771;28;20017;-75
2022/06/02 11:09:55;;;;;;;4.53;2.28;;;8.90;99.90;;;;;;5051263;28;20478;-71
2022/06/02 11:13:06;;;;;;;3.47;1.67;;;8.90;99.90;;;;;;5053181;28;20021;-72
2022/06/02 11:15:51;;;;;;;5.78;2.13;;;8.80;99.90;;;;;;5045065;28;20091;-76
2022/06/02 11:18:55;;;;;;;2.67;1.60;;;8.70;99.90;;;;;;5052337;28;20025;-71
2022/06/02 11:21:43;;;;;;;8.57;2.15;;;8.70;99.90;;;;;;5052652;28;20055;-76
2022/06/02 11:24:22;;;;;;;4.38;2.55;;;8.70;99.90;;;;;;5051919;28;20009;-76
2022/06/02 11:27:19;;;;;;;3.25;2.00;;;8.70;99.90;;;;;;5052514;28;20014;-72
2022/06/02 11:30:04;;;;;;;3.05;2.13;;;8.70;99.90;;;;;;5052590;28;20021;-74
2022/06/02 11:33:04;;;;;;;3.75;1.95;;;8.60;99.90;;;;;;5053142;28;20033;-71
2022/06/02 11:35:46;;;;;;;3.30;2.25;;;8.60;99.90;;;;;;5052318;28;20047;-71
2022/06/02 11:38:38;;;;;;;3.28;1.70;;;8.60;99.90;;;;;;5051696;28;20080;-70
2022/06/02 11:41:13;;;;;;;3.47;1.90;;;8.60;99.90;;;;;;5049463;28;20040;-70
2022/06/02 11:44:02;;;;;;;2.95;1.60;;;8.50;99.90;;;;;;5052432;28;20150;-72
2022/06/02 11:47:00;;;;;;;5.68;1.70;;;8.50;99.90;;;;;;5053012;28;20424;-77
2022/06/02 11:49:30;;;;;;;2.13;1.48;;;8.50;99.90;;;;;;5050690;28;20025;-72
2022/06/02 11:52:25;;;;;;;4.82;2.25;;;8.50;99.90;;;;;;5050746;28;20060;-71
2022/06/02 11:55:13;;;;;;;5.40;1.85;;;8.50;99.90;;;;;;5050925;28;20104;-71
2022/06/02 11:57:47;;;;;;;3.80;1.85;;;8.50;99.90;;;;;;5051153;28;20028;-72
2022/06/02 12:00:44;;;;;;;2.50;1.40;;;8.50;99.90;;;;;;5052316;28;20037;-76
2022/06/02 12:03:44;;;;;;;3.85;2.22;;;8.50;99.90;;;;;;5052328;28;20041;-73
2022/06/02 12:06:46;;;;;;;2.50;1.38;;;8.50;99.90;;;;;;5050751;28;20029;-71
2022/06/02 12:09:30;;;;;;;3.65;1.77;;;8.50;99.90;;;;;;5050137;28;20021;-71
2022/06/02 12:12:41;;;;;;;2.67;1.67;;;8.50;99.90;;;;;;5051032;28;20031;-71
2022/06/02 12:15:21;;;;;;;3.45;1.63;;;8.50;99.90;;;;;;5050700;28;20104;-76
2022/06/02 12:18:06;;;;;;;2.55;1.20;;;8.50;99.90;;;;;;5052516;28;20366;-77
2022/06/02 12:20:34;;;;;;;2.73;1.77;;;8.50;99.90;;;;;;5049683;28;20032;-76
2022/06/02 12:23:28;;;;;;;2.83;1.73;;;8.50;99.90;;;;;;5050830;28;20024;-71
2022/06/02 12:26:13;;;;;;;4.13;2.38;;;8.50;99.90;;;;;;5051522;28;20024;-76
2022/06/02 12:29:05;;;;;;;3.25;1.80;;;8.40;99.90;;;;;;5050865;28;20052;-74
2022/06/02 12:31:46;;;;;;;4.53;1.60;;;8.50;99.90;;;;;;5052006;28;20020;-73
2022/06/02 12:34:22;;;;;;;4.93;1.95;;;8.40;99.90;;;;;;5052789;28;20071;-75
2022/06/02 12:37:23;;;;;;;3.10;1.90;;;8.50;99.90;;;;;;5048070;28;20029;-76
2022/06/02 12:40:10;;;;;;;2.85;1.65;;;8.40;99.90;;;;;;5049920;28;20029;-76
2022/06/02 12:42:55;;;;;;;3.65;2.40;;;8.50;99.90;;;;;;5044029;28;20119;-73
2022/06/02 12:45:41;;;;;;;6.72;2.28;;;8.40;99.90;;;;;;5049467;28;20394;-71
2022/06/02 12:48:29;;;;;;;2.05;1.58;;;8.50;99.90;;;;;;5050206;28;20025;-71
2022/06/02 12:51:17;;;;;;;2.47;1.63;;;8.50;99.90;;;;;;5052840;28;20478;-72
2022/06/02 12:54:06;;;;;;;2.03;1.20;;;8.50;99.90;;;;;;5052409;28;20017;-74
2022/06/02 12:56:56;;;;;;;2.78;1.58;;;8.60;99.90;;;;;;5052771;28;20020;-71
2022/06/02 12:59:37;;;;;;;4.07;1.50;;;8.60;99.90;;;;;;5052008;28;20024;-70
2022/06/02 13:02:10;;;;;;;3.13;1.38;;;8.60;99.90;;;;;;5051794;28;20151;-76
2022/06/02 13:05:01;;;;;;;1.48;1.15;;;8.60;99.90;;;;;;5052424;28;20036;-74
2022/06/02 13:07:45;;;;;;;4.57;1.42;;;8.60;99.90;;;;;;5051074;28;20048;-71
2022/06/02 13:10:34;;;;;;;2.03;1.33;;;8.60;99.90;;;;;;5052695;28;20028;-72
2022/06/02 13:13:32;;;;;;;2.45;1.38;;;8.60;99.90;;;;;;5052537;28;20489;-70
2022/06/02 13:16:28;;;;;;;1.25;0.93;;;8.70;99.90;;;;;;5052331;28;20551;-76
2022/06/02 13:19:20;;;;;;;1.88;1.17;;;8.70;99.90;;;;;;5050810;28;20025;-70
2022/06/02 13:22:05;;;;;;;1.98;1.27;;;8.70;99.90;;;;;;5050675;28;20033;-70
2022/06/02 13:24:33;;;;;;;1.58;1.13;;;8.70;99.90;;;;;;5051441;28;20029;-73
2022/06/02 13:27:22;;;;;;;2.72;1.27;;;8.60;99.90;;;;;;5052647;28;20082;-76
2022/06/02 13:30:17;;;;;;;1.98;1.50;;;8.60;99.90;;;;;;5050992;28;20025;-76
2022/06/02 13:33:16;;;;;;;3.45;1.65;;;8.60;99.90;;;;;;5050169;28;20371;-75
2022/06/02 13:35:46;;;;;;;2.05;1.30;;;8.70;99.90;;;;;;5036759;28;20098;-76
2022/06/02 13:38:41;;;;;;;4.05;1.27;;;8.60;99.90;;;;;;5052518;28;20495;-77
2022/06/02 13:41:28;;;;;;;3.53;1.75;;;8.60;99.90;;;;;;5050748;28;20029;-70
2022/06/02 13:44:28;;;;;;;2.35;1.38;;;8.60;99.90;;;;;;5051801;28;20536;-76
2022/06/02 13:47:32;;;;;;;4.10;1.52;;;8.70;99.90;;;;;;5051671;28;20386;-76
2022/06/02 13:50:17;;;;;;;2.45;1.50;;;8.70;99.90;;;;;;5052074;28;20037;-76
2022/06/02 13:52:47;;;;;;;3.40;1.37;;;8.70;99.90;;;;;;5050189;28;20442;-72
2022/06/02 13:58:49;;;;;;;4.30;1.50;;;8.70;99.90;;;;;;5052092;28;20436;-70
2022/06/02 14:01:52;;;;;;;3.58;1.40;;;8.70;99.90;;;;;;5034963;28;20041;-77
2022/06/02 14:04:46;;;;;;;2.47;1.58;;;8.60;99.90;;;;;;5056117;28;20393;-77
2022/06/02 14:07:32;;;;;;;3.72;1.50;;;8.70;99.90;;;;;;5055158;28;20047;-75
2022/06/02 14:10:23;;;;;;;2.60;1.35;;;8.60;99.90;;;;;;5055706;28;20108;-76
2022/06/02 14:12:54;;;;;;;2.65;1.77;;;8.60;99.90;;;;;;5054381;28;20017;-76
2022/06/02 14:15:44;;;;;;;2.17;1.20;;;8.60;99.90;;;;;;5055963;28;20017;-76
2022/06/02 14:18:39;;;;;;;2.03;1.10;;;8.60;99.90;;;;;;5054750;28;20029;-78
2022/06/02 14:21:26;;;;;;;1.85;0.90;;;8.50;99.90;;;;;;5056314;28;20040;-68
2022/06/02 14:24:07;;;;;;;1.70;0.80;;;8.50;99.90;;;;;;5056588;28;20059;-75
2022/06/02 14:26:57;;;;;;;1.35;0.85;;;8.50;99.90;;;;;;5056381;28;20029;-75
2022/06/02 14:29:34;;;;;;;1.90;1.40;;;8.50;99.90;;;;;;5056479;28;20048;-68
2022/06/02 14:32:23;;;;;;;2.30;0.93;;;8.40;99.90;;;;;;5056053;28;20033;-69
2022/06/02 14:35:25;;;;;;;1.10;1.00;;;8.40;99.90;;;;;;5056153;28;20021;-68
2022/06/02 14:38:04;;;;;;;1.50;0.95;;;8.40;99.90;;;;;;5056071;28;20045;-78
2022/06/02 14:40:57;;;;;;;1.58;1.08;;;8.40;99.90;;;;;;5056035;28;20029;-77
2022/06/02 14:43:58;;;;;;;1.70;0.85;;;8.40;99.90;;;;;;5035075;28;20018;-70
2022/06/02 14:47:12;;;;;;;1.63;0.88;;;8.30;99.90;;;;;;5034257;28;20021;-78
2022/06/02 14:49:55;;;;;;;2.20;0.77;;;8.30;99.90;;;;;;5033883;28;20061;-70
2022/06/02 14:52:38;;;;;;;1.75;0.80;;;8.30;99.90;;;;;;5035773;28;20136;-76
2022/06/02 14:55:21;;;;;;;1.63;1.02;;;8.30;99.90;;;;;;5035994;28;20034;-76
2022/06/02 14:57:58;;;;;;;1.08;0.77;;;8.20;99.90;;;;;;5035940;28;20033;-76